Weather at Aeròdrom de Folgueroles

Public forecast

Using degrees Celsius for public forecast. Weather courtesy of forecast.io.

Closest aviation weather report (METAR) to Aeròdrom de Folgueroles

Closest report is Girona Airport, 20.5 nm (38.0 km) E. Retrieved 2020/09/26 01:30 UTC (5 minutes ago):

LEGE 260130Z 03002KT CAVOK 10/04 Q1014

Closest aviation forecast (TAF) to Aeròdrom de Folgueroles

Closest forecast is Girona Airport, 20.5 nm (38.0 km) E. Retrieved 2020-09-26 00:27 UTC (1 hour ago):

TAF LEGE 252300Z 2600/2624 VRB03KT 9999 FEW020 TX21/2613Z TN10/2606Z BECMG 2612/2614 15010KT BECMG 2618/2620 36009KT TEMPO 2618/2624 4000 RA BKN010